Murray, NE (68409)

11:11 PM CDT on September 21, 2019 (GMT -0500)
Brannon Drive | | Change Station

Elev 1129 ft 40.92 °N, 95.91 °W | Updated 10 seconds ago

Thunderstorms and Rain
Thunderstorm Rain
67.6 °F
Feels Like 67.6 °F
N
0
Wind Variable Wind from West
Gusts 0.0 mph

Today
High -- | Low -- °F
--% Chance of Precip.
Yesterday
High -- | Low -- °F
Precip. -- in
Pressure 29.91 in
Visibility 10.0 miles
Clouds Scattered Clouds 7500 ft
Overcast 11000 ft
Dew Point 65 °F
Humidity 91%
Rainfall 0.04 in
Snow Depth Not available.
7:10 AM 7:22 PM
Waning Gibbous, 49% visible
METAR KPMV 220355Z AUTO 07009KT 10SM TSRA SCT075 OVC110 21/19 A2991 RMK AO2 LTG DSNT ALQS P0001 T02090191
Pressure 29.91 in
Visibility 10.0 miles
Clouds Scattered Clouds 7500 ft
Overcast 11000 ft
Dew Point 65 °F
Humidity 91%
Rainfall 0.04 in
Snow Depth Not available.
7:10 AM 7:22 PM
Waning Gibbous, 49% visible
METAR KPMV 220355Z AUTO 07009KT 10SM TSRA SCT075 OVC110 21/19 A2991 RMK AO2 LTG DSNT ALQS P0001 T02090191

Get Your Daily Forecast Email!

Thanks for signing up!

Be on the lookout for a verification email in your inbox.

You'll start receiving severe weather alerts in your inbox..

×

10-Day Weather Forecast

Almanac

Astronomy

Sep. 21, 2019 Rise Set
Actual Time
Civil Twilight
Nautical Twilight
Astronomical Twilight
Moon
Length of Visible Light
Length of Day
Tomorrow will be .
, % of the Moon is Illuminated

Today's Extremes

State Highs State Lows

Community

WunderPhotos

Category 6

Welcome to Category 6. This is the collective home for Weather Underground's featured writeups by Dr. Jeff Masters (right), Bob Henson (left), Chris Burt, and other regular contributors.

Nearby

Air Quality

  Air Quality AQ Index Pollutant
Not available.

Snow Depth

Station Depth Elevation

Earthquake Activity

City Distance Mag. Time & Date
Minimum magnitude displayed is 2.5.

Coastal Water Temperatures

Place Temperature

Stations

Nearby Weather Stations

Station Location Temp. Windchill Dew Point Humidity Wind Precip. Elev Updated Type
                   

Watches & Warnings

Severe Thunderstorm Watch
Issued: 10:53 PM CDT Sep. 21, 2019 – National Weather Service

Severe Thunderstorm Watch 657 remains in effect until 1200 am CDT

NE
. Nebraska counties included are

Cass Dodge Douglas
Fillmore gage Jefferson
Johnson Lancaster Nemaha
Nuckolls Otoe Pawnee
Richardson Saline Sarpy
Saunders Thayer Washington


Flood Warning
Issued: 8:54 PM CDT Sep. 21, 2019 – National Weather Service

The Flood Warning continues for
the Missouri River at Plattsmouth.
* At 8:15 PM Saturday the stage was 29.7 feet... or 3.7 feet above
flood stage.
* Flood stage is 26.0 feet.
* Minor flooding is occurring and minor flooding is forecast.
* Forecast... the river will continue to fall to below flood stage by
late Tuesday morning, October 1st.



Lat... Lon 4106 9591 4107 9574 4078 9572 4078 9587
      4092 9585